Time;durP1;ratioP1;P1;durP2;ratioP2;P2;SDS_P1;SDS_P2;PMS_P1;PMS_P2;Temp;Humidity;BMP_temperature;BMP_pressure;BME280_temperature;BME280_humidity;BME280_pressure;Samples;Min_cycle;Max_cycle;Signal;HPM_P1;HPM_P2
2021/10/12 00:00:49;;;;;;;;;4.25;4.25;;;;;;;;5080434;27;45415;-86
2021/10/12 00:03:14;;;;;;;;;4.00;4.00;;;;;;;;5078963;27;45373;-87
2021/10/12 00:05:39;;;;;;;;;7.50;6.25;;;;;;;;5085241;27;45611;-86
2021/10/12 00:08:04;;;;;;;;;5.00;5.00;;;;;;;;5081552;27;45348;-87
2021/10/12 00:10:30;;;;;;;;;8.25;5.50;;;;;;;;5083082;27;46298;-87
2021/10/12 00:12:55;;;;;;;;;6.50;4.50;;;;;;;;5089797;27;45323;-87
2021/10/12 00:15:20;;;;;;;;;7.75;6.00;;;;;;;;5079116;27;45351;-86
2021/10/12 00:17:45;;;;;;;;;7.25;5.00;;;;;;;;5076830;27;45307;-87
2021/10/12 00:20:10;;;;;;;;;8.50;7.00;;;;;;;;5090528;27;46086;-86
2021/10/12 00:22:36;;;;;;;;;8.25;7.00;;;;;;;;5081047;27;45438;-87
2021/10/12 00:25:02;;;;;;;;;3.00;3.00;;;;;;;;5077686;27;45300;-87
2021/10/12 00:27:27;;;;;;;;;4.00;4.00;;;;;;;;5076480;27;45446;-86
2021/10/12 00:29:52;;;;;;;;;6.50;6.50;;;;;;;;5075472;27;46290;-87
2021/10/12 00:32:17;;;;;;;;;8.50;4.75;;;;;;;;5079931;27;45377;-87
2021/10/12 00:34:43;;;;;;;;;6.00;5.00;;;;;;;;5077672;27;45345;-87
2021/10/12 00:37:08;;;;;;;;;8.00;7.00;;;;;;;;5079422;27;45463;-87
2021/10/12 00:39:33;;;;;;;;;6.50;5.00;;;;;;;;5078035;27;45416;-87
2021/10/12 00:41:59;;;;;;;;;6.00;4.50;;;;;;;;5074307;27;45405;-87
2021/10/12 00:44:25;;;;;;;;;8.00;5.50;;;;;;;;5080969;27;45360;-86
2021/10/12 00:46:52;;;;;;;;;10.50;4.50;;;;;;;;5078161;27;45378;-87
2021/10/12 00:49:18;;;;;;;;;6.75;5.00;;;;;;;;5076686;27;47364;-87
2021/10/12 00:51:43;;;;;;;;;6.75;6.75;;;;;;;;5076607;27;45471;-86
2021/10/12 00:54:08;;;;;;;;;7.25;7.25;;;;;;;;5071766;27;45589;-86
2021/10/12 00:56:34;;;;;;;;;6.00;6.00;;;;;;;;5089725;27;45583;-86
2021/10/12 00:59:01;;;;;;;;;7.25;6.00;;;;;;;;5061418;28;46933;-86
2021/10/12 01:01:26;;;;;;;;;6.00;4.50;;;;;;;;5082272;27;45346;-86
2021/10/12 01:03:51;;;;;;;;;7.00;7.00;;;;;;;;5089556;27;45331;-86
2021/10/12 01:06:17;;;;;;;;;5.00;4.50;;;;;;;;5075414;27;45371;-87
2021/10/12 01:08:42;;;;;;;;;9.75;6.75;;;;;;;;5078749;27;46594;-87
2021/10/12 01:11:07;;;;;;;;;8.25;7.00;;;;;;;;5078711;27;45509;-87
2021/10/12 01:13:33;;;;;;;;;6.50;5.50;;;;;;;;5078811;27;45565;-87
2021/10/12 01:15:58;;;;;;;;;7.00;5.00;;;;;;;;5079196;27;45434;-87
2021/10/12 01:18:23;;;;;;;;;6.25;6.00;;;;;;;;5077418;27;46269;-87
2021/10/12 01:20:52;;;;;;;;;9.00;7.00;;;;;;;;5076364;27;45494;-87
2021/10/12 01:23:18;;;;;;;;;7.00;7.00;;;;;;;;5094452;27;45504;-87
2021/10/12 01:25:44;;;;;;;;;10.75;9.00;;;;;;;;5080755;27;45591;-87
2021/10/12 01:28:09;;;;;;;;;7.50;6.25;;;;;;;;5083092;27;46072;-86
2021/10/12 01:30:38;;;;;;;;;9.25;8.25;;;;;;;;5103268;27;45345;-86
2021/10/12 01:33:04;;;;;;;;;10.75;10.00;;;;;;;;5080777;28;44738;-87
2021/10/12 01:35:29;;;;;;;;;8.75;7.25;;;;;;;;5100604;27;45381;-87
2021/10/12 01:37:54;;;;;;;;;12.75;9.25;;;;;;;;5103403;27;46190;-87
2021/10/12 01:40:20;;;;;;;;;7.75;7.75;;;;;;;;5098020;27;45326;-87
2021/10/12 01:42:45;;;;;;;;;11.25;9.00;;;;;;;;5090839;27;45301;-86
2021/10/12 01:45:11;;;;;;;;;8.50;6.75;;;;;;;;5082876;27;45313;-86
2021/10/12 01:47:36;;;;;;;;;7.00;7.00;;;;;;;;5084070;27;45367;-87
2021/10/12 01:50:03;;;;;;;;;7.75;7.75;;;;;;;;5083818;27;45242;-86
2021/10/12 01:52:28;;;;;;;;;9.25;6.00;;;;;;;;5108115;27;44871;-87
2021/10/12 01:54:53;;;;;;;;;8.75;4.00;;;;;;;;5109348;27;44757;-87
2021/10/12 01:57:19;;;;;;;;;9.00;5.50;;;;;;;;5107588;27;45300;-86
2021/10/12 01:59:45;;;;;;;;;7.75;5.00;;;;;;;;5106578;27;44766;-87
2021/10/12 02:02:10;;;;;;;;;8.25;6.75;;;;;;;;5110990;27;44747;-87
2021/10/12 02:04:35;;;;;;;;;12.00;8.50;;;;;;;;5108038;27;44833;-87
2021/10/12 02:07:01;;;;;;;;;9.75;7.00;;;;;;;;5108468;27;45153;-87
2021/10/12 02:09:26;;;;;;;;;9.25;8.75;;;;;;;;5103943;27;44792;-86
2021/10/12 02:11:52;;;;;;;;;13.50;9.25;;;;;;;;5103850;27;44781;-87
2021/10/12 02:14:17;;;;;;;;;10.00;9.25;;;;;;;;5106931;27;45457;-82
2021/10/12 02:16:43;;;;;;;;;7.00;6.00;;;;;;;;5089962;27;45593;-85
2021/10/12 02:19:08;;;;;;;;;8.00;4.75;;;;;;;;5086272;27;45442;-86
2021/10/12 02:21:34;;;;;;;;;10.25;7.00;;;;;;;;5092355;27;45434;-80
2021/10/12 02:23:59;;;;;;;;;11.75;8.75;;;;;;;;5076214;27;45302;-80
2021/10/12 02:26:24;;;;;;;;;8.00;8.00;;;;;;;;5081980;27;45438;-80
2021/10/12 02:28:50;;;;;;;;;6.00;5.00;;;;;;;;5078759;27;45474;-79
2021/10/12 02:31:15;;;;;;;;;7.25;7.25;;;;;;;;5078573;27;45791;-79
2021/10/12 02:33:41;;;;;;;;;9.00;7.50;;;;;;;;5080533;27;45737;-79
2021/10/12 02:36:06;;;;;;;;;8.75;5.75;;;;;;;;5076426;27;46120;-79
2021/10/12 02:38:31;;;;;;;;;8.75;7.75;;;;;;;;5081631;27;45499;-79
2021/10/12 02:40:57;;;;;;;;;10.00;8.00;;;;;;;;5079405;27;45565;-79
2021/10/12 02:43:22;;;;;;;;;8.75;6.50;;;;;;;;5080112;27;45504;-79
2021/10/12 02:45:47;;;;;;;;;8.00;7.50;;;;;;;;5079820;27;47166;-79
2021/10/12 02:48:13;;;;;;;;;5.50;5.50;;;;;;;;5077195;27;45528;-79
2021/10/12 02:50:38;;;;;;;;;7.25;6.25;;;;;;;;5079328;27;45963;-79
2021/10/12 02:53:04;;;;;;;;;9.75;7.50;;;;;;;;5081130;27;45424;-79
2021/10/12 02:55:29;;;;;;;;;10.00;8.00;;;;;;;;5078051;27;45363;-79
2021/10/12 02:57:54;;;;;;;;;6.75;6.75;;;;;;;;5079702;27;45334;-79
2021/10/12 03:00:19;;;;;;;;;8.75;7.25;;;;;;;;5078660;27;45276;-79
2021/10/12 03:02:45;;;;;;;;;6.00;6.00;;;;;;;;5077523;27;45460;-79
2021/10/12 03:05:10;;;;;;;;;8.50;5.75;;;;;;;;5081424;27;49064;-79
2021/10/12 03:07:36;;;;;;;;;8.00;6.25;;;;;;;;5080110;27;45499;-78
2021/10/12 03:10:02;;;;;;;;;8.25;5.75;;;;;;;;5079431;27;45386;-79
2021/10/12 03:12:28;;;;;;;;;9.25;7.50;;;;;;;;5079243;27;45378;-78
2021/10/12 03:14:53;;;;;;;;;5.25;4.25;;;;;;;;5075639;27;46835;-78
2021/10/12 03:17:18;;;;;;;;;9.00;7.75;;;;;;;;5063128;28;45399;-77
2021/10/12 03:19:44;;;;;;;;;10.00;8.25;;;;;;;;5079226;27;45294;-78
2021/10/12 03:22:14;;;;;;;;;9.00;8.00;;;;;;;;5077045;27;45332;-77
2021/10/12 03:24:39;;;;;;;;;8.00;7.75;;;;;;;;5077159;27;47424;-78
2021/10/12 03:27:08;;;;;;;;;9.00;8.00;;;;;;;;5074658;27;45596;-79
2021/10/12 03:29:33;;;;;;;;;7.00;7.00;;;;;;;;5079806;27;45387;-79
2021/10/12 03:31:59;;;;;;;;;6.75;4.75;;;;;;;;5079728;27;45372;-79
2021/10/12 03:34:25;;;;;;;;;6.25;6.00;;;;;;;;5078633;27;47205;-79
2021/10/12 03:36:51;;;;;;;;;5.75;5.75;;;;;;;;5058639;27;45370;-78
2021/10/12 03:39:16;;;;;;;;;6.00;6.00;;;;;;;;5090643;27;45456;-78
2021/10/12 03:41:41;;;;;;;;;6.50;6.50;;;;;;;;5078006;27;45449;-79
2021/10/12 03:44:06;;;;;;;;;7.25;7.25;;;;;;;;5080224;27;46981;-79
2021/10/12 03:46:32;;;;;;;;;8.75;6.25;;;;;;;;5077210;27;45412;-79
2021/10/12 03:48:57;;;;;;;;;7.75;7.50;;;;;;;;5078473;27;45442;-78
2021/10/12 03:51:22;;;;;;;;;8.00;8.00;;;;;;;;5076884;27;45551;-79
2021/10/12 03:53:47;;;;;;;;;8.75;6.75;;;;;;;;5075788;27;45706;-80
2021/10/12 03:56:13;;;;;;;;;7.00;7.00;;;;;;;;5078820;27;45367;-78
2021/10/12 03:58:38;;;;;;;;;11.00;8.00;;;;;;;;5078670;27;45397;-79
2021/10/12 04:01:03;;;;;;;;;7.00;6.50;;;;;;;;5078848;27;45327;-79
2021/10/12 04:03:28;;;;;;;;;7.50;7.00;;;;;;;;5077897;27;46157;-78
2021/10/12 04:05:53;;;;;;;;;8.75;7.75;;;;;;;;5074481;27;45422;-78
2021/10/12 04:08:19;;;;;;;;;10.75;7.50;;;;;;;;5080474;27;45489;-79
2021/10/12 04:10:44;;;;;;;;;7.00;7.00;;;;;;;;5078328;27;45420;-79
2021/10/12 04:13:09;;;;;;;;;9.00;7.25;;;;;;;;5076647;27;45552;-78
2021/10/12 04:15:35;;;;;;;;;9.25;8.25;;;;;;;;5082014;27;45399;-78
2021/10/12 04:18:00;;;;;;;;;10.75;9.00;;;;;;;;5073711;27;45373;-79
2021/10/12 04:20:26;;;;;;;;;8.50;7.75;;;;;;;;5080098;27;45546;-79
2021/10/12 04:22:53;;;;;;;;;10.50;10.25;;;;;;;;5077433;27;45523;-79
2021/10/12 04:25:19;;;;;;;;;14.00;11.50;;;;;;;;5075849;27;45522;-79
2021/10/12 04:27:44;;;;;;;;;11.00;9.00;;;;;;;;5076286;27;45454;-79
2021/10/12 04:30:10;;;;;;;;;10.50;9.75;;;;;;;;5073797;27;45401;-80
2021/10/12 04:32:35;;;;;;;;;9.00;8.00;;;;;;;;5077536;27;49471;-78
2021/10/12 04:35:01;;;;;;;;;10.25;9.25;;;;;;;;5078719;27;45325;-80
2021/10/12 04:37:26;;;;;;;;;7.25;7.25;;;;;;;;5075920;27;45453;-80
2021/10/12 04:39:51;;;;;;;;;9.50;8.50;;;;;;;;5058102;27;45290;-80
2021/10/12 04:42:17;;;;;;;;;7.50;7.00;;;;;;;;5074189;27;45454;-80
2021/10/12 04:44:42;;;;;;;;;9.25;8.00;;;;;;;;5076038;27;45470;-78
2021/10/12 04:47:10;;;;;;;;;9.25;9.00;;;;;;;;5079434;27;45383;-80
2021/10/12 04:49:36;;;;;;;;;9.75;8.75;;;;;;;;5058623;27;45313;-77
2021/10/12 04:52:01;;;;;;;;;14.50;11.00;;;;;;;;5077227;27;45451;-80
2021/10/12 04:54:26;;;;;;;;;9.75;9.75;;;;;;;;5076379;27;45256;-77
2021/10/12 04:56:52;;;;;;;;;9.00;9.00;;;;;;;;5074749;27;45302;-75
2021/10/12 04:59:17;;;;;;;;;6.00;6.00;;;;;;;;5079311;27;45467;-79
2021/10/12 05:01:42;;;;;;;;;9.00;8.75;;;;;;;;5076816;27;45684;-78
2021/10/12 05:04:08;;;;;;;;;10.25;9.25;;;;;;;;5079227;27;45417;-78
2021/10/12 05:06:33;;;;;;;;;12.25;11.25;;;;;;;;5081871;27;45471;-78
2021/10/12 05:08:59;;;;;;;;;10.00;9.50;;;;;;;;5062088;28;45387;-77
2021/10/12 05:11:25;;;;;;;;;10.75;8.00;;;;;;;;5085313;27;45369;-79
2021/10/12 05:13:52;;;;;;;;;10.50;7.00;;;;;;;;5083050;27;45533;-78
2021/10/12 05:16:19;;;;;;;;;13.50;12.25;;;;;;;;5082936;27;45475;-79
2021/10/12 05:18:46;;;;;;;;;11.25;11.00;;;;;;;;5082990;27;45463;-78
2021/10/12 05:21:12;;;;;;;;;15.25;12.00;;;;;;;;5080496;27;46092;-78
2021/10/12 05:23:39;;;;;;;;;14.25;10.25;;;;;;;;5083380;27;45275;-80
2021/10/12 05:26:05;;;;;;;;;9.50;9.00;;;;;;;;5097095;27;45295;-79
2021/10/12 05:28:30;;;;;;;;;12.25;9.75;;;;;;;;5094488;27;45474;-79
2021/10/12 05:30:56;;;;;;;;;28.50;22.50;;;;;;;;5091314;27;47100;-80
2021/10/12 05:33:21;;;;;;;;;26.25;23.75;;;;;;;;5080938;27;45350;-78
2021/10/12 05:35:47;;;;;;;;;21.00;16.75;;;;;;;;5081674;27;47987;-80
2021/10/12 05:38:13;;;;;;;;;15.00;13.75;;;;;;;;5089289;27;45291;-79
2021/10/12 05:40:39;;;;;;;;;13.00;11.00;;;;;;;;5081694;27;46377;-79
2021/10/12 05:43:04;;;;;;;;;13.00;11.00;;;;;;;;5077319;27;45339;-82
2021/10/12 05:45:29;;;;;;;;;11.75;9.75;;;;;;;;5093629;27;45309;-80
2021/10/12 05:47:54;;;;;;;;;14.25;11.00;;;;;;;;5078871;27;45493;-81
2021/10/12 05:50:19;;;;;;;;;11.50;8.25;;;;;;;;5085770;27;45443;-81
2021/10/12 05:58:14;;;;;;;;;13.25;12.25;;;;;;;;5083729;27;45533;-81
2021/10/12 06:00:39;;;;;;;;;24.25;20.75;;;;;;;;5083175;27;47074;-82
2021/10/12 06:03:05;;;;;;;;;60.25;48.75;;;;;;;;5079986;27;45285;-80
2021/10/12 06:05:30;;;;;;;;;13.25;11.25;;;;;;;;5085028;27;45242;-88
2021/10/12 06:07:55;;;;;;;;;16.25;15.25;;;;;;;;5082804;27;45264;-82
2021/10/12 06:10:23;;;;;;;;;12.75;12.00;;;;;;;;5084137;27;47102;-79
2021/10/12 06:12:52;;;;;;;;;15.50;13.75;;;;;;;;5090647;27;45287;-81
2021/10/12 06:15:17;;;;;;;;;14.00;12.75;;;;;;;;5076775;27;45761;-82
2021/10/12 06:17:42;;;;;;;;;13.25;11.25;;;;;;;;5077974;27;45456;-80
2021/10/12 06:20:08;;;;;;;;;9.50;8.00;;;;;;;;5078541;27;46282;-80
2021/10/12 06:22:33;;;;;;;;;12.25;11.00;;;;;;;;5077083;27;45601;-81
2021/10/12 06:24:58;;;;;;;;;10.75;10.00;;;;;;;;5077443;27;45429;-81
2021/10/12 06:27:24;;;;;;;;;16.00;10.50;;;;;;;;5077533;27;45487;-79
2021/10/12 06:29:49;;;;;;;;;15.00;12.25;;;;;;;;5075413;27;46111;-78
2021/10/12 06:32:14;;;;;;;;;11.25;9.00;;;;;;;;5078209;27;45307;-79
2021/10/12 06:34:40;;;;;;;;;15.75;12.50;;;;;;;;5088482;27;45511;-79
2021/10/12 06:37:05;;;;;;;;;18.00;15.50;;;;;;;;5084459;27;45392;-78
2021/10/12 06:39:31;;;;;;;;;14.75;13.50;;;;;;;;5078278;27;45372;-78
2021/10/12 06:41:56;;;;;;;;;12.00;11.25;;;;;;;;5074742;27;45294;-81
2021/10/12 06:44:21;;;;;;;;;19.75;15.25;;;;;;;;5095891;27;45574;-79
2021/10/12 06:46:46;;;;;;;;;19.00;18.25;;;;;;;;5079412;27;45477;-83
2021/10/12 06:49:12;;;;;;;;;19.25;14.25;;;;;;;;5076738;27;46692;-81
2021/10/12 06:51:37;;;;;;;;;15.00;12.25;;;;;;;;5078891;27;45343;-84
2021/10/12 06:54:03;;;;;;;;;13.25;13.25;;;;;;;;5091742;27;45336;-84
2021/10/12 06:56:28;;;;;;;;;23.00;20.25;;;;;;;;5095085;27;45350;-86
2021/10/12 06:58:53;;;;;;;;;13.50;13.50;;;;;;;;5086427;27;45388;-86
2021/10/12 07:01:19;;;;;;;;;13.50;10.50;;;;;;;;5090170;28;44837;-85
2021/10/12 07:03:44;;;;;;;;;18.50;15.50;;;;;;;;5090518;27;45498;-84
2021/10/12 07:06:09;;;;;;;;;9.75;9.50;;;;;;;;5091205;27;45431;-85
2021/10/12 07:08:34;;;;;;;;;17.00;14.25;;;;;;;;5096600;27;46168;-85
2021/10/12 07:10:59;;;;;;;;;14.00;12.25;;;;;;;;5079354;27;45445;-86
2021/10/12 07:13:29;;;;;;;;;11.50;8.00;;;;;;;;5080195;27;45392;-86
2021/10/12 07:15:55;;;;;;;;;16.50;14.50;;;;;;;;5080087;27;45269;-86
2021/10/12 07:18:20;;;;;;;;;19.75;16.25;;;;;;;;5078229;27;47468;-85
2021/10/12 07:20:46;;;;;;;;;21.75;19.50;;;;;;;;5077789;27;45273;-86
2021/10/12 07:23:11;;;;;;;;;45.00;34.25;;;;;;;;5088329;27;45283;-87
2021/10/12 07:25:36;;;;;;;;;22.25;15.50;;;;;;;;5078475;27;45445;-86
2021/10/12 07:28:01;;;;;;;;;15.50;12.50;;;;;;;;5065705;27;45397;-86
2021/10/12 07:30:26;;;;;;;;;17.25;14.50;;;;;;;;5064861;27;45470;-85
2021/10/12 07:32:52;;;;;;;;;13.25;12.50;;;;;;;;5056970;28;45224;-85
2021/10/12 07:35:17;;;;;;;;;12.50;10.00;;;;;;;;5090089;27;45237;-82
2021/10/12 07:37:42;;;;;;;;;12.75;12.75;;;;;;;;5078846;27;45441;-78
2021/10/12 07:40:08;;;;;;;;;13.00;11.00;;;;;;;;5075220;27;45494;-81
2021/10/12 07:42:34;;;;;;;;;2.00;1.00;;;;;;;;5076194;27;45348;-81
2021/10/12 07:44:59;;;;;;;;;13.25;10.75;;;;;;;;5056587;28;45409;-81
2021/10/12 07:47:25;;;;;;;;;10.25;8.75;;;;;;;;5078985;27;45525;-80
2021/10/12 07:49:50;;;;;;;;;10.75;8.00;;;;;;;;5076528;27;45252;-80
2021/10/12 07:52:15;;;;;;;;;10.25;9.25;;;;;;;;5082241;27;45311;-80
2021/10/12 07:54:45;;;;;;;;;13.25;11.50;;;;;;;;5085464;27;45583;-80
2021/10/12 07:57:12;;;;;;;;;15.75;14.50;;;;;;;;5073370;27;45518;-79
2021/10/12 07:59:38;;;;;;;;;17.50;15.00;;;;;;;;5076448;27;45492;-79
2021/10/12 08:02:03;;;;;;;;;11.50;11.50;;;;;;;;5076808;27;45518;-79
2021/10/12 08:04:28;;;;;;;;;10.25;10.00;;;;;;;;5076693;27;45295;-79
2021/10/12 08:06:53;;;;;;;;;13.50;12.00;;;;;;;;5076464;27;46210;-79
2021/10/12 08:09:18;;;;;;;;;11.75;11.75;;;;;;;;5078179;27;45566;-79
2021/10/12 08:11:44;;;;;;;;;11.50;11.00;;;;;;;;5079047;27;45466;-79
2021/10/12 08:14:11;;;;;;;;;17.25;15.75;;;;;;;;5077681;27;45320;-80
2021/10/12 08:16:36;;;;;;;;;15.25;14.00;;;;;;;;5081643;27;45484;-81
2021/10/12 08:19:03;;;;;;;;;14.00;12.75;;;;;;;;5083701;27;45390;-81
2021/10/12 08:21:29;;;;;;;;;11.50;11.00;;;;;;;;5074654;27;45619;-80
2021/10/12 08:23:57;;;;;;;;;14.50;13.25;;;;;;;;5073724;27;45652;-80
2021/10/12 08:26:22;;;;;;;;;16.50;11.50;;;;;;;;5078491;27;46468;-80
2021/10/12 08:28:47;;;;;;;;;12.00;10.75;;;;;;;;5077186;27;45430;-80
2021/10/12 08:31:13;;;;;;;;;15.50;13.00;;;;;;;;5077235;27;45483;-80
2021/10/12 08:33:38;;;;;;;;;14.00;10.50;;;;;;;;5075627;27;45491;-80
2021/10/12 08:36:03;;;;;;;;;12.00;12.00;;;;;;;;5072486;27;46138;-80
2021/10/12 08:38:29;;;;;;;;;15.50;13.75;;;;;;;;5077658;27;45507;-81
2021/10/12 08:40:55;;;;;;;;;11.25;9.50;;;;;;;;5077041;27;45371;-80
2021/10/12 08:43:21;;;;;;;;;12.50;10.75;;;;;;;;5075793;27;45492;-81
2021/10/12 08:45:46;;;;;;;;;16.75;12.50;;;;;;;;5079432;27;45746;-81
2021/10/12 08:48:12;;;;;;;;;18.00;16.25;;;;;;;;5088289;27;45501;-80
2021/10/12 08:50:37;;;;;;;;;21.75;18.75;;;;;;;;5089962;27;45490;-80
2021/10/12 08:53:03;;;;;;;;;15.75;11.25;;;;;;;;5076304;27;45541;-79
2021/10/12 08:55:28;;;;;;;;;15.00;14.50;;;;;;;;5080160;27;47140;-79
2021/10/12 08:57:54;;;;;;;;;18.25;17.00;;;;;;;;5087200;27;45559;-81
2021/10/12 09:00:20;;;;;;;;;17.25;16.00;;;;;;;;5086869;27;45358;-81
2021/10/12 09:06:02;;;;;;;;;13.25;12.00;;;;;;;;5087729;27;45527;-80
2021/10/12 09:08:40;;;;;;;;;17.75;16.25;;;;;;;;5079074;27;45284;-80
2021/10/12 09:11:07;;;;;;;;;15.25;14.00;;;;;;;;5077563;27;45255;-81
2021/10/12 09:13:46;;;;;;;;;16.75;14.75;;;;;;;;5077611;27;45254;-79
2021/10/12 09:16:12;;;;;;;;;16.75;15.75;;;;;;;;5077430;27;46433;-78
2021/10/12 09:18:56;;;;;;;;;25.50;14.00;;;;;;;;5072729;27;45283;-80
2021/10/12 09:21:26;;;;;;;;;15.25;11.75;;;;;;;;5088441;27;45561;-80
2021/10/12 09:24:02;;;;;;;;;15.25;12.25;;;;;;;;5073266;27;45406;-80
2021/10/12 09:26:28;;;;;;;;;20.25;15.50;;;;;;;;5077292;27;46323;-79
2021/10/12 09:29:02;;;;;;;;;12.50;12.50;;;;;;;;5075602;27;45453;-80
2021/10/12 09:31:35;;;;;;;;;14.25;14.25;;;;;;;;5073123;27;45256;-81
2021/10/12 09:34:02;;;;;;;;;14.25;14.25;;;;;;;;5076661;27;45486;-80
2021/10/12 09:36:28;;;;;;;;;15.75;11.25;;;;;;;;5076254;27;45619;-80
2021/10/12 09:38:54;;;;;;;;;16.00;14.75;;;;;;;;5074987;27;45351;-79
2021/10/12 09:41:22;;;;;;;;;11.75;11.75;;;;;;;;5081698;27;45276;-79
2021/10/12 09:43:47;;;;;;;;;17.00;14.00;;;;;;;;5079642;27;45260;-80
2021/10/12 09:46:23;;;;;;;;;14.25;12.75;;;;;;;;5079463;27;46268;-80
2021/10/12 09:48:49;;;;;;;;;28.75;26.75;;;;;;;;5075354;27;47259;-80
2021/10/12 09:51:15;;;;;;;;;28.00;24.00;;;;;;;;5074765;27;45455;-79
2021/10/12 09:53:43;;;;;;;;;15.75;14.25;;;;;;;;5095047;27;45369;-79
2021/10/12 09:56:08;;;;;;;;;15.25;12.50;;;;;;;;5079785;27;46121;-80
2021/10/12 09:58:34;;;;;;;;;12.75;10.50;;;;;;;;5079469;27;45458;-80
2021/10/12 10:01:00;;;;;;;;;15.25;15.25;;;;;;;;5079277;27;45405;-80
2021/10/12 10:03:29;;;;;;;;;26.50;18.50;;;;;;;;5076438;27;45229;-80
2021/10/12 10:05:57;;;;;;;;;14.25;11.75;;;;;;;;5092552;27;47167;-81
2021/10/12 10:08:22;;;;;;;;;15.25;12.75;;;;;;;;5079714;27;45424;-79
2021/10/12 10:10:48;;;;;;;;;20.75;16.00;;;;;;;;5076148;27;45538;-80
2021/10/12 10:13:18;;;;;;;;;13.50;13.00;;;;;;;;5078559;27;45431;-79
2021/10/12 10:15:44;;;;;;;;;17.25;13.50;;;;;;;;5077271;27;46140;-80
2021/10/12 10:18:09;;;;;;;;;14.50;14.25;;;;;;;;5073634;27;45430;-81
2021/10/12 10:20:34;;;;;;;;;20.75;15.75;;;;;;;;5078834;27;45555;-80
2021/10/12 10:23:00;;;;;;;;;14.00;12.25;;;;;;;;5078535;27;45324;-79
2021/10/12 10:25:30;;;;;;;;;16.00;11.50;;;;;;;;5077536;27;47214;-80
2021/10/12 10:28:14;;;;;;;;;15.25;13.25;;;;;;;;5080903;27;45642;-80
2021/10/12 10:30:43;;;;;;;;;11.75;10.50;;;;;;;;5089249;27;45407;-80
2021/10/12 10:33:08;;;;;;;;;14.25;9.00;;;;;;;;5073916;27;45374;-79
2021/10/12 10:35:35;;;;;;;;;18.00;13.50;;;;;;;;5079063;27;45353;-80
2021/10/12 10:38:20;;;;;;;;;15.50;10.75;;;;;;;;5078068;27;45344;-79
2021/10/12 10:40:49;;;;;;;;;12.75;11.25;;;;;;;;5077421;27;45517;-79
2021/10/12 10:43:14;;;;;;;;;14.75;14.00;;;;;;;;5077678;27;45504;-80
2021/10/12 10:45:42;;;;;;;;;15.50;14.75;;;;;;;;5074897;27;45698;-80
2021/10/12 10:48:09;;;;;;;;;11.75;9.00;;;;;;;;5073718;27;45225;-79
2021/10/12 10:50:34;;;;;;;;;12.25;9.00;;;;;;;;5078237;27;45391;-80
2021/10/12 10:53:02;;;;;;;;;14.75;11.75;;;;;;;;5076587;27;45386;-81
2021/10/12 10:55:31;;;;;;;;;13.50;11.75;;;;;;;;5075652;27;46246;-80
2021/10/12 10:57:59;;;;;;;;;18.00;17.00;;;;;;;;5077534;27;45290;-80
2021/10/12 11:00:24;;;;;;;;;9.75;9.75;;;;;;;;5074610;27;45409;-81
2021/10/12 11:02:50;;;;;;;;;8.50;6.00;;;;;;;;5075988;27;45392;-80
2021/10/12 11:05:34;;;;;;;;;12.75;10.00;;;;;;;;5079218;27;46259;-79
2021/10/12 11:08:10;;;;;;;;;12.50;11.00;;;;;;;;5076270;27;45441;-79
2021/10/12 11:10:36;;;;;;;;;9.50;9.50;;;;;;;;5078263;27;45570;-80
2021/10/12 11:13:01;;;;;;;;;6.50;6.50;;;;;;;;5083576;27;45455;-79
2021/10/12 11:15:26;;;;;;;;;5.50;5.50;;;;;;;;5088985;27;45335;-80
2021/10/12 11:18:09;;;;;;;;;3.00;3.00;;;;;;;;5074250;27;45387;-78
2021/10/12 11:20:45;;;;;;;;;7.25;6.25;;;;;;;;5087317;27;45371;-78
2021/10/12 11:23:11;;;;;;;;;7.00;6.00;;;;;;;;5078732;27;45594;-79
2021/10/12 11:25:37;;;;;;;;;11.00;7.25;;;;;;;;5077074;27;45983;-80
2021/10/12 11:28:08;;;;;;;;;6.50;5.00;;;;;;;;5058755;27;45338;-79
2021/10/12 11:30:34;;;;;;;;;6.00;6.00;;;;;;;;5076892;27;45513;-79
2021/10/12 11:33:01;;;;;;;;;6.75;6.75;;;;;;;;5072436;27;45498;-80
2021/10/12 11:35:32;;;;;;;;;4.00;3.33;;;;;;;;5079187;27;46282;-80
2021/10/12 11:37:58;;;;;;;;;5.67;5.67;;;;;;;;5075246;27;45684;-79
2021/10/12 11:40:24;;;;;;;;;7.00;5.00;;;;;;;;5077202;27;45466;-79
2021/10/12 11:42:51;;;;;;;;;4.25;4.00;;;;;;;;5077295;27;45371;-79
2021/10/12 11:45:17;;;;;;;;;6.75;6.50;;;;;;;;5074015;27;47092;-79
2021/10/12 11:47:43;;;;;;;;;5.75;3.25;;;;;;;;5076045;27;45343;-80
2021/10/12 11:50:09;;;;;;;;;4.25;4.25;;;;;;;;5077526;27;45283;-80
2021/10/12 11:52:34;;;;;;;;;3.67;3.67;;;;;;;;5076671;27;45523;-79
2021/10/12 11:55:06;;;;;;;;;5.75;5.75;;;;;;;;5076330;27;46270;-79
2021/10/12 11:57:31;;;;;;;;;5.75;5.00;;;;;;;;5076164;27;45379;-78
2021/10/12 11:59:56;;;;;;;;;7.25;7.00;;;;;;;;5073102;27;45342;-79
2021/10/12 12:02:22;;;;;;;;;8.25;6.25;;;;;;;;5079087;27;45517;-80
2021/10/12 12:04:47;;;;;;;;;5.25;5.00;;;;;;;;5074811;27;46082;-80
2021/10/12 12:07:14;;;;;;;;;5.50;5.50;;;;;;;;5076485;27;45507;-80
2021/10/12 12:09:40;;;;;;;;;5.25;3.25;;;;;;;;5075993;27;45457;-78
2021/10/12 12:12:06;;;;;;;;;2.00;2.00;;;;;;;;5070860;27;45471;-80
2021/10/12 12:14:31;;;;;;;;;5.75;3.25;;;;;;;;5077171;27;46247;-79
2021/10/12 12:17:13;;;;;;;;;6.25;3.25;;;;;;;;5086474;27;45321;-79
2021/10/12 12:19:43;;;;;;;;;8.00;4.75;;;;;;;;5077660;27;45279;-80
2021/10/12 12:22:20;;;;;;;;;1.67;1.67;;;;;;;;5076324;27;45519;-79
2021/10/12 12:24:55;;;;;;;;;10.25;5.50;;;;;;;;5076356;27;46245;-79
2021/10/12 12:27:21;;;;;;;;;4.67;3.67;;;;;;;;5074872;27;45554;-79
2021/10/12 12:30:00;;;;;;;;;4.33;4.00;;;;;;;;5075088;27;45371;-79
2021/10/12 12:32:25;;;;;;;;;6.00;4.00;;;;;;;;5078335;27;45708;-79
2021/10/12 12:35:00;;;;;;;;;4.00;4.00;;;;;;;;5076727;27;46262;-79
2021/10/12 12:37:26;;;;;;;;;5.75;4.50;;;;;;;;5076464;27;45637;-78
2021/10/12 12:39:52;;;;;;;;;9.00;8.00;;;;;;;;5075369;27;45403;-79
2021/10/12 12:42:31;;;;;;;;;3.75;3.75;;;;;;;;5074219;27;45318;-79
2021/10/12 12:45:13;;;;;;;;;3.00;3.00;;;;;;;;5072639;27;47293;-79
2021/10/12 12:47:49;;;;;;;;;4.25;4.25;;;;;;;;5086342;27;45398;-79
2021/10/12 12:50:14;;;;;;;;;5.75;4.50;;;;;;;;5077846;27;45558;-78
2021/10/12 12:52:39;;;;;;;;;6.00;5.75;;;;;;;;5074718;27;45458;-80
2021/10/12 12:55:05;;;;;;;;;6.00;4.50;;;;;;;;5074907;27;46994;-79
2021/10/12 12:57:30;;;;;;;;;13.50;5.50;;;;;;;;5075720;27;45485;-80
2021/10/12 13:00:14;;;;;;;;;9.00;5.00;;;;;;;;5073805;27;45696;-79
2021/10/12 13:02:39;;;;;;;;;5.00;5.00;;;;;;;;5086243;27;45364;-79
2021/10/12 13:05:04;;;;;;;;;5.25;3.00;;;;;;;;5076518;27;46531;-78
2021/10/12 13:07:30;;;;;;;;;3.50;3.50;;;;;;;;5076220;27;45986;-79
2021/10/12 13:09:55;;;;;;;;;4.00;4.00;;;;;;;;5076518;27;45424;-80
2021/10/12 13:12:22;;;;;;;;;5.00;4.75;;;;;;;;5074470;27;45518;-78
2021/10/12 13:14:48;;;;;;;;;4.25;4.00;;;;;;;;5073621;27;46372;-80
2021/10/12 13:17:19;;;;;;;;;4.75;3.50;;;;;;;;5074987;27;45313;-80
2021/10/12 13:19:51;;;;;;;;;4.25;4.25;;;;;;;;5076261;27;45486;-80
2021/10/12 13:22:17;;;;;;;;;6.75;6.00;;;;;;;;5074858;27;45573;-81
2021/10/12 13:24:43;;;;;;;;;5.50;4.25;;;;;;;;5077165;27;45564;-79
2021/10/12 13:27:08;;;;;;;;;10.50;9.00;;;;;;;;5075635;27;45539;-79
2021/10/12 13:29:33;;;;;;;;;10.25;8.25;;;;;;;;5080478;27;45508;-79
2021/10/12 13:32:00;;;;;;;;;6.50;5.00;;;;;;;;5077310;27;45490;-77
2021/10/12 13:34:26;;;;;;;;;7.50;6.75;;;;;;;;5077666;27;45602;-80
2021/10/12 13:36:51;;;;;;;;;8.50;5.75;;;;;;;;5079369;27;45742;-79
2021/10/12 13:39:16;;;;;;;;;4.75;4.25;;;;;;;;5076531;27;45477;-79
2021/10/12 13:41:42;;;;;;;;;8.25;4.25;;;;;;;;5078615;27;45535;-80
2021/10/12 13:44:07;;;;;;;;;4.50;2.75;;;;;;;;5080928;27;46457;-80
2021/10/12 13:46:32;;;;;;;;;7.25;4.75;;;;;;;;5078968;27;45447;-80
2021/10/12 13:48:58;;;;;;;;;4.00;3.50;;;;;;;;5079033;27;45358;-80
2021/10/12 13:51:23;;;;;;;;;4.25;3.50;;;;;;;;5076996;27;45409;-81
2021/10/12 13:53:48;;;;;;;;;5.75;5.75;;;;;;;;5076113;27;45953;-79
2021/10/12 13:56:13;;;;;;;;;4.00;4.00;;;;;;;;5080384;27;45467;-79
2021/10/12 13:58:39;;;;;;;;;6.50;4.25;;;;;;;;5079036;27;45477;-79
2021/10/12 14:01:04;;;;;;;;;4.00;3.50;;;;;;;;5077651;27;46798;-80
2021/10/12 14:03:30;;;;;;;;;3.50;3.50;;;;;;;;5077344;27;46939;-80
2021/10/12 14:05:55;;;;;;;;;5.00;5.00;;;;;;;;5074959;27;45427;-78
2021/10/12 14:08:20;;;;;;;;;5.00;4.00;;;;;;;;5081039;27;45380;-79
2021/10/12 14:10:45;;;;;;;;;7.00;5.75;;;;;;;;5076723;27;45318;-79
2021/10/12 14:13:10;;;;;;;;;6.00;4.50;;;;;;;;5076224;27;46390;-79
2021/10/12 14:15:36;;;;;;;;;4.75;4.75;;;;;;;;5075825;27;45363;-79
2021/10/12 14:18:01;;;;;;;;;5.25;4.00;;;;;;;;5074084;27;45384;-80
2021/10/12 14:20:26;;;;;;;;;2.25;2.25;;;;;;;;5080397;27;45355;-80
2021/10/12 14:22:53;;;;;;;;;5.25;5.25;;;;;;;;5077319;27;46003;-80
2021/10/12 14:25:19;;;;;;;;;2.75;2.75;;;;;;;;5077963;27;45512;-78
2021/10/12 14:27:45;;;;;;;;;4.00;4.00;;;;;;;;5077875;27;45421;-77
2021/10/12 14:30:10;;;;;;;;;4.75;3.50;;;;;;;;5074338;27;45343;-79
2021/10/12 14:32:37;;;;;;;;;6.00;4.75;;;;;;;;5078625;27;47184;-79
2021/10/12 14:35:02;;;;;;;;;3.00;3.00;;;;;;;;5076851;27;45477;-79